sensor_id;sensor_type;location;lat;lon;timestamp;temperature;humidity
1476;DHT22;730;48.870;12.542;2023-07-13T00:00:05;21.40;8.50
1476;DHT22;730;48.870;12.542;2023-07-13T00:02:37;21.40;7.40
1476;DHT22;730;48.870;12.542;2023-07-13T00:05:04;21.30;6.90
1476;DHT22;730;48.870;12.542;2023-07-13T00:07:30;21.20;7.20
1476;DHT22;730;48.870;12.542;2023-07-13T00:09:58;21.20;7.80
1476;DHT22;730;48.870;12.542;2023-07-13T00:12:33;21.20;7.50
1476;DHT22;730;48.870;12.542;2023-07-13T00:15:01;21.10;7.90
1476;DHT22;730;48.870;12.542;2023-07-13T00:17:28;21.00;8.60
1476;DHT22;730;48.870;12.542;2023-07-13T00:19:56;21.00;8.40
1476;DHT22;730;48.870;12.542;2023-07-13T00:22:23;21.00;8.30
1476;DHT22;730;48.870;12.542;2023-07-13T00:24:54;21.00;8.00
1476;DHT22;730;48.870;12.542;2023-07-13T00:27:24;21.00;7.80
1476;DHT22;730;48.870;12.542;2023-07-13T00:29:52;21.00;7.50
1476;DHT22;730;48.870;12.542;2023-07-13T00:32:18;21.00;7.60
1476;DHT22;730;48.870;12.542;2023-07-13T00:34:48;21.00;7.30
1476;DHT22;730;48.870;12.542;2023-07-13T00:37:14;21.00;7.00
1476;DHT22;730;48.870;12.542;2023-07-13T00:39:40;21.10;6.80
1476;DHT22;730;48.870;12.542;2023-07-13T00:42:06;21.10;6.60
1476;DHT22;730;48.870;12.542;2023-07-13T00:44:32;21.10;6.40
1476;DHT22;730;48.870;12.542;2023-07-13T00:46:59;21.20;6.30
1476;DHT22;730;48.870;12.542;2023-07-13T00:49:27;21.20;6.20
1476;DHT22;730;48.870;12.542;2023-07-13T00:51:55;21.20;5.60
1476;DHT22;730;48.870;12.542;2023-07-13T00:54:26;21.30;5.80
1476;DHT22;730;48.870;12.542;2023-07-13T00:56:55;21.30;6.00
1476;DHT22;730;48.870;12.542;2023-07-13T00:59:24;21.30;5.80
1476;DHT22;730;48.870;12.542;2023-07-13T01:01:51;21.30;5.40
1476;DHT22;730;48.870;12.542;2023-07-13T01:04:25;21.30;5.30
1476;DHT22;730;48.870;12.542;2023-07-13T01:06:51;21.30;5.50
1476;DHT22;730;48.870;12.542;2023-07-13T01:09:17;21.20;4.40
1476;DHT22;730;48.870;12.542;2023-07-13T01:11:43;21.20;4.60
1476;DHT22;730;48.870;12.542;2023-07-13T01:14:10;21.20;4.20
1476;DHT22;730;48.870;12.542;2023-07-13T01:16:37;21.20;4.00
1476;DHT22;730;48.870;12.542;2023-07-13T01:22:04;21.20;4.10
1476;DHT22;730;48.870;12.542;2023-07-13T01:24:39;21.20;3.90
1476;DHT22;730;48.870;12.542;2023-07-13T01:27:06;21.20;3.80
1476;DHT22;730;48.870;12.542;2023-07-13T01:29:35;21.30;4.00
1476;DHT22;730;48.870;12.542;2023-07-13T01:32:14;21.30;3.80
1476;DHT22;730;48.870;12.542;2023-07-13T01:34:40;21.30;3.80
1476;DHT22;730;48.870;12.542;2023-07-13T01:37:10;21.30;3.50
1476;DHT22;730;48.870;12.542;2023-07-13T01:39:37;21.30;3.70
1476;DHT22;730;48.870;12.542;2023-07-13T01:42:04;21.20;3.30
1476;DHT22;730;48.870;12.542;2023-07-13T01:44:30;21.20;3.40
1476;DHT22;730;48.870;12.542;2023-07-13T01:46:56;21.10;3.60
1476;DHT22;730;48.870;12.542;2023-07-13T01:49:22;21.10;3.90
1476;DHT22;730;48.870;12.542;2023-07-13T01:51:49;21.10;4.30
1476;DHT22;730;48.870;12.542;2023-07-13T01:54:19;21.10;4.10
1476;DHT22;730;48.870;12.542;2023-07-13T01:56:45;21.10;4.10
1476;DHT22;730;48.870;12.542;2023-07-13T01:59:11;21.10;3.70
1476;DHT22;730;48.870;12.542;2023-07-13T02:01:37;21.10;4.10
1476;DHT22;730;48.870;12.542;2023-07-13T02:04:03;21.10;4.20
1476;DHT22;730;48.870;12.542;2023-07-13T02:06:29;21.10;4.30
1476;DHT22;730;48.870;12.542;2023-07-13T02:08:55;21.20;4.20
1476;DHT22;730;48.870;12.542;2023-07-13T02:11:21;21.10;4.10
1476;DHT22;730;48.870;12.542;2023-07-13T02:13:57;21.20;4.20
1476;DHT22;730;48.870;12.542;2023-07-13T02:16:23;21.20;4.20
1476;DHT22;730;48.870;12.542;2023-07-13T02:18:49;21.20;3.90
1476;DHT22;730;48.870;12.542;2023-07-13T02:21:18;21.30;4.10
1476;DHT22;730;48.870;12.542;2023-07-13T02:23:44;21.20;3.80
1476;DHT22;730;48.870;12.542;2023-07-13T02:26:11;21.30;3.80
1476;DHT22;730;48.870;12.542;2023-07-13T02:28:37;21.30;3.60
1476;DHT22;730;48.870;12.542;2023-07-13T02:31:12;21.30;3.50
1476;DHT22;730;48.870;12.542;2023-07-13T02:33:38;21.30;3.40
1476;DHT22;730;48.870;12.542;2023-07-13T02:36:05;21.30;3.20
1476;DHT22;730;48.870;12.542;2023-07-13T02:38:32;21.30;3.20
1476;DHT22;730;48.870;12.542;2023-07-13T02:41:00;21.30;3.20
1476;DHT22;730;48.870;12.542;2023-07-13T02:43:26;21.30;3.30
1476;DHT22;730;48.870;12.542;2023-07-13T02:45:52;21.30;3.30
1476;DHT22;730;48.870;12.542;2023-07-13T02:48:18;21.30;2.90
1476;DHT22;730;48.870;12.542;2023-07-13T02:50:44;21.20;3.10
1476;DHT22;730;48.870;12.542;2023-07-13T02:53:10;21.20;3.40
1476;DHT22;730;48.870;12.542;2023-07-13T02:55:36;21.20;3.50
1476;DHT22;730;48.870;12.542;2023-07-13T02:58:03;21.20;3.50
1476;DHT22;730;48.870;12.542;2023-07-13T03:00:29;21.20;3.70
1476;DHT22;730;48.870;12.542;2023-07-13T03:02:56;21.30;3.90
1476;DHT22;730;48.870;12.542;2023-07-13T03:05:23;21.20;3.80
1476;DHT22;730;48.870;12.542;2023-07-13T03:07:50;21.30;3.70
1476;DHT22;730;48.870;12.542;2023-07-13T03:10:16;21.20;3.10
1476;DHT22;730;48.870;12.542;2023-07-13T03:12:42;21.20;3.00
1476;DHT22;730;48.870;12.542;2023-07-13T03:15:09;21.20;3.10
1476;DHT22;730;48.870;12.542;2023-07-13T03:17:35;21.10;3.30
1476;DHT22;730;48.870;12.542;2023-07-13T03:20:01;21.00;3.60
1476;DHT22;730;48.870;12.542;2023-07-13T03:22:27;21.00;3.90
1476;DHT22;730;48.870;12.542;2023-07-13T03:24:55;20.80;4.40
1476;DHT22;730;48.870;12.542;2023-07-13T03:27:21;20.80;4.90
1476;DHT22;730;48.870;12.542;2023-07-13T03:29:47;20.90;5.10
1476;DHT22;730;48.870;12.542;2023-07-13T03:32:13;20.90;5.20
1476;DHT22;730;48.870;12.542;2023-07-13T03:34:39;20.90;5.00
1476;DHT22;730;48.870;12.542;2023-07-13T03:37:05;21.00;4.90
1476;DHT22;730;48.870;12.542;2023-07-13T03:39:31;21.00;4.90
1476;DHT22;730;48.870;12.542;2023-07-13T03:41:57;21.00;4.70
1476;DHT22;730;48.870;12.542;2023-07-13T03:44:23;21.00;4.60
1476;DHT22;730;48.870;12.542;2023-07-13T03:46:50;21.00;4.70
1476;DHT22;730;48.870;12.542;2023-07-13T03:49:16;21.00;4.60
1476;DHT22;730;48.870;12.542;2023-07-13T03:51:42;21.00;4.80
1476;DHT22;730;48.870;12.542;2023-07-13T03:54:08;21.00;4.90
1476;DHT22;730;48.870;12.542;2023-07-13T03:56:34;21.00;4.90
1476;DHT22;730;48.870;12.542;2023-07-13T03:59:01;21.00;5.00
1476;DHT22;730;48.870;12.542;2023-07-13T04:01:28;21.00;4.90
1476;DHT22;730;48.870;12.542;2023-07-13T04:03:54;21.00;4.80
1476;DHT22;730;48.870;12.542;2023-07-13T04:06:26;21.00;4.80
1476;DHT22;730;48.870;12.542;2023-07-13T04:08:55;21.00;4.90
1476;DHT22;730;48.870;12.542;2023-07-13T04:11:24;21.00;4.80
1476;DHT22;730;48.870;12.542;2023-07-13T04:13:51;21.00;4.70
1476;DHT22;730;48.870;12.542;2023-07-13T04:16:18;21.00;4.60
1476;DHT22;730;48.870;12.542;2023-07-13T04:18:45;21.00;4.60
1476;DHT22;730;48.870;12.542;2023-07-13T04:21:13;21.00;4.50
1476;DHT22;730;48.870;12.542;2023-07-13T04:23:39;21.00;4.30
1476;DHT22;730;48.870;12.542;2023-07-13T04:26:06;21.10;4.30
1476;DHT22;730;48.870;12.542;2023-07-13T04:28:33;21.10;4.50
1476;DHT22;730;48.870;12.542;2023-07-13T04:30:59;21.00;4.50
1476;DHT22;730;48.870;12.542;2023-07-13T04:33:26;21.00;4.50
1476;DHT22;730;48.870;12.542;2023-07-13T04:35:54;21.00;4.50
1476;DHT22;730;48.870;12.542;2023-07-13T04:38:23;21.10;4.70
1476;DHT22;730;48.870;12.542;2023-07-13T04:40:51;21.10;4.70
1476;DHT22;730;48.870;12.542;2023-07-13T04:43:18;21.10;4.90
1476;DHT22;730;48.870;12.542;2023-07-13T04:45:44;21.10;5.10
1476;DHT22;730;48.870;12.542;2023-07-13T04:48:10;21.10;5.20
1476;DHT22;730;48.870;12.542;2023-07-13T04:50:36;21.10;5.10
1476;DHT22;730;48.870;12.542;2023-07-13T04:53:03;21.10;4.90
1476;DHT22;730;48.870;12.542;2023-07-13T04:55:30;21.20;4.70
1476;DHT22;730;48.870;12.542;2023-07-13T04:58:04;21.10;4.80
1476;DHT22;730;48.870;12.542;2023-07-13T05:00:31;21.20;4.80
1476;DHT22;730;48.870;12.542;2023-07-13T05:02:57;21.20;4.70
1476;DHT22;730;48.870;12.542;2023-07-13T05:05:25;21.30;4.60
1476;DHT22;730;48.870;12.542;2023-07-13T05:07:52;21.30;4.40
1476;DHT22;730;48.870;12.542;2023-07-13T05:10:19;21.40;4.50
1476;DHT22;730;48.870;12.542;2023-07-13T05:12:45;21.40;3.60
1476;DHT22;730;48.870;12.542;2023-07-13T05:15:11;21.40;3.60
1476;DHT22;730;48.870;12.542;2023-07-13T05:17:37;21.50;3.40
1476;DHT22;730;48.870;12.542;2023-07-13T05:20:08;21.50;3.40
1476;DHT22;730;48.870;12.542;2023-07-13T05:22:34;21.60;3.20
1476;DHT22;730;48.870;12.542;2023-07-13T05:25:04;21.60;3.00
1476;DHT22;730;48.870;12.542;2023-07-13T05:27:30;21.60;2.40
1476;DHT22;730;48.870;12.542;2023-07-13T05:29:56;21.60;2.30
1476;DHT22;730;48.870;12.542;2023-07-13T05:32:22;21.70;2.20
1476;DHT22;730;48.870;12.542;2023-07-13T05:34:48;21.70;1.90
1476;DHT22;730;48.870;12.542;2023-07-13T05:37:14;21.80;1.50
1476;DHT22;730;48.870;12.542;2023-07-13T05:39:40;21.80;1.10
1476;DHT22;730;48.870;12.542;2023-07-13T05:42:06;21.80;1.00
1476;DHT22;730;48.870;12.542;2023-07-13T05:44:37;21.80;1.00
1476;DHT22;730;48.870;12.542;2023-07-13T05:47:03;21.90;1.00
1476;DHT22;730;48.870;12.542;2023-07-13T05:49:30;21.90;1.00
1476;DHT22;730;48.870;12.542;2023-07-13T05:51:56;22.00;1.00
1476;DHT22;730;48.870;12.542;2023-07-13T05:54:22;21.90;1.00
1476;DHT22;730;48.870;12.542;2023-07-13T05:56:49;22.00;1.00
1476;DHT22;730;48.870;12.542;2023-07-13T05:59:19;22.10;1.00
1476;DHT22;730;48.870;12.542;2023-07-13T06:01:45;22.10;1.00
1476;DHT22;730;48.870;12.542;2023-07-13T06:04:11;22.10;1.00
1476;DHT22;730;48.870;12.542;2023-07-13T06:06:38;22.10;1.00
1476;DHT22;730;48.870;12.542;2023-07-13T06:09:04;22.10;1.00
1476;DHT22;730;48.870;12.542;2023-07-13T06:11:30;22.10;1.00
1476;DHT22;730;48.870;12.542;2023-07-13T06:13:58;22.10;1.00
1476;DHT22;730;48.870;12.542;2023-07-13T06:16:24;22.10;1.00
1476;DHT22;730;48.870;12.542;2023-07-13T06:18:50;22.10;1.00
1476;DHT22;730;48.870;12.542;2023-07-13T06:21:19;22.10;1.00
1476;DHT22;730;48.870;12.542;2023-07-13T06:23:47;22.20;1.00
1476;DHT22;730;48.870;12.542;2023-07-13T06:26:19;22.30;1.00
1476;DHT22;730;48.870;12.542;2023-07-13T06:28:45;22.30;1.00
1476;DHT22;730;48.870;12.542;2023-07-13T06:31:13;22.40;1.00
1476;DHT22;730;48.870;12.542;2023-07-13T06:33:39;22.40;1.00
1476;DHT22;730;48.870;12.542;2023-07-13T06:36:07;22.50;1.00
1476;DHT22;730;48.870;12.542;2023-07-13T06:38:33;22.50;1.00
1476;DHT22;730;48.870;12.542;2023-07-13T06:41:00;22.60;1.00
1476;DHT22;730;48.870;12.542;2023-07-13T06:43:30;22.60;1.00
1476;DHT22;730;48.870;12.542;2023-07-13T06:45:57;22.70;1.00
1476;DHT22;730;48.870;12.542;2023-07-13T06:48:23;22.70;1.00
1476;DHT22;730;48.870;12.542;2023-07-13T06:50:50;22.80;1.00
1476;DHT22;730;48.870;12.542;2023-07-13T06:53:18;22.80;1.00
1476;DHT22;730;48.870;12.542;2023-07-13T06:55:45;22.90;1.00
1476;DHT22;730;48.870;12.542;2023-07-13T06:58:12;23.00;1.00
1476;DHT22;730;48.870;12.542;2023-07-13T07:00:38;23.10;1.00
1476;DHT22;730;48.870;12.542;2023-07-13T07:03:06;23.20;1.00
1476;DHT22;730;48.870;12.542;2023-07-13T07:05:32;23.30;1.00
1476;DHT22;730;48.870;12.542;2023-07-13T07:07:59;23.40;1.00
1476;DHT22;730;48.870;12.542;2023-07-13T07:10:25;23.60;1.00
1476;DHT22;730;48.870;12.542;2023-07-13T07:12:52;23.80;1.00
1476;DHT22;730;48.870;12.542;2023-07-13T07:15:18;24.10;1.00
1476;DHT22;730;48.870;12.542;2023-07-13T07:17:44;24.40;1.00
1476;DHT22;730;48.870;12.542;2023-07-13T07:20:10;24.80;1.00
1476;DHT22;730;48.870;12.542;2023-07-13T07:22:37;25.10;1.00
1476;DHT22;730;48.870;12.542;2023-07-13T07:25:03;25.40;1.00
1476;DHT22;730;48.870;12.542;2023-07-13T07:27:29;25.70;1.00
1476;DHT22;730;48.870;12.542;2023-07-13T07:29:55;25.90;1.00
1476;DHT22;730;48.870;12.542;2023-07-13T07:32:23;26.20;1.00
1476;DHT22;730;48.870;12.542;2023-07-13T07:34:49;26.50;1.00
1476;DHT22;730;48.870;12.542;2023-07-13T07:37:15;26.80;1.00
1476;DHT22;730;48.870;12.542;2023-07-13T07:39:43;27.00;1.00
1476;DHT22;730;48.870;12.542;2023-07-13T07:42:09;27.20;1.00
1476;DHT22;730;48.870;12.542;2023-07-13T07:44:36;27.30;1.00
1476;DHT22;730;48.870;12.542;2023-07-13T07:47:02;27.50;1.00
1476;DHT22;730;48.870;12.542;2023-07-13T07:49:28;27.50;1.00
1476;DHT22;730;48.870;12.542;2023-07-13T07:51:54;27.50;1.00
1476;DHT22;730;48.870;12.542;2023-07-13T07:54:20;27.50;1.00
1476;DHT22;730;48.870;12.542;2023-07-13T07:56:47;27.50;1.00
1476;DHT22;730;48.870;12.542;2023-07-13T07:59:13;27.40;1.00
1476;DHT22;730;48.870;12.542;2023-07-13T08:01:39;27.40;1.00
1476;DHT22;730;48.870;12.542;2023-07-13T08:04:05;27.50;1.00
1476;DHT22;730;48.870;12.542;2023-07-13T08:06:32;27.50;1.00
1476;DHT22;730;48.870;12.542;2023-07-13T08:08:59;27.60;1.00
1476;DHT22;730;48.870;12.542;2023-07-13T08:11:25;27.80;1.00
1476;DHT22;730;48.870;12.542;2023-07-13T08:13:52;28.00;1.00
1476;DHT22;730;48.870;12.542;2023-07-13T08:16:18;28.20;1.00
1476;DHT22;730;48.870;12.542;2023-07-13T08:18:44;28.30;1.00
1476;DHT22;730;48.870;12.542;2023-07-13T08:21:10;28.30;1.00
1476;DHT22;730;48.870;12.542;2023-07-13T08:23:36;28.30;1.00
1476;DHT22;730;48.870;12.542;2023-07-13T08:26:02;28.40;1.00
1476;DHT22;730;48.870;12.542;2023-07-13T08:28:31;28.50;1.00
1476;DHT22;730;48.870;12.542;2023-07-13T08:31:03;28.70;1.00
1476;DHT22;730;48.870;12.542;2023-07-13T08:33:29;28.90;1.00
1476;DHT22;730;48.870;12.542;2023-07-13T08:35:55;28.70;1.00
1476;DHT22;730;48.870;12.542;2023-07-13T08:38:22;28.70;1.00
1476;DHT22;730;48.870;12.542;2023-07-13T08:40:53;28.80;1.00
1476;DHT22;730;48.870;12.542;2023-07-13T08:43:26;28.90;1.00
1476;DHT22;730;48.870;12.542;2023-07-13T08:45:57;29.10;1.00
1476;DHT22;730;48.870;12.542;2023-07-13T08:48:32;29.30;1.00
1476;DHT22;730;48.870;12.542;2023-07-13T08:51:26;29.30;1.00
1476;DHT22;730;48.870;12.542;2023-07-13T08:54:03;29.40;1.00
1476;DHT22;730;48.870;12.542;2023-07-13T08:56:30;29.50;1.00
1476;DHT22;730;48.870;12.542;2023-07-13T08:59:11;29.50;1.00
1476;DHT22;730;48.870;12.542;2023-07-13T09:04:48;29.30;1.00
1476;DHT22;730;48.870;12.542;2023-07-13T09:10:23;29.50;1.00
1476;DHT22;730;48.870;12.542;2023-07-13T09:15:31;29.30;1.00
1476;DHT22;730;48.870;12.542;2023-07-13T09:18:06;29.30;1.00
1476;DHT22;730;48.870;12.542;2023-07-13T09:20:38;29.30;1.00
1476;DHT22;730;48.870;12.542;2023-07-13T09:23:12;29.40;1.00
1476;DHT22;730;48.870;12.542;2023-07-13T09:25:40;29.60;1.00
1476;DHT22;730;48.870;12.542;2023-07-13T09:28:18;29.80;1.00
1476;DHT22;730;48.870;12.542;2023-07-13T09:33:29;30.00;1.00
1476;DHT22;730;48.870;12.542;2023-07-13T09:35:58;30.10;1.00
1476;DHT22;730;48.870;12.542;2023-07-13T09:38:29;30.30;1.00
1476;DHT22;730;48.870;12.542;2023-07-13T09:41:19;30.40;1.00
1476;DHT22;730;48.870;12.542;2023-07-13T09:46:39;30.40;1.00
1476;DHT22;730;48.870;12.542;2023-07-13T09:49:15;30.50;1.00
1476;DHT22;730;48.870;12.542;2023-07-13T09:51:42;30.60;1.00
1476;DHT22;730;48.870;12.542;2023-07-13T09:54:19;30.70;1.00
1476;DHT22;730;48.870;12.542;2023-07-13T09:56:46;30.70;1.00
1476;DHT22;730;48.870;12.542;2023-07-13T09:59:22;30.80;1.00
1476;DHT22;730;48.870;12.542;2023-07-13T10:01:50;30.90;1.00
1476;DHT22;730;48.870;12.542;2023-07-13T10:04:22;30.80;1.00
1476;DHT22;730;48.870;12.542;2023-07-13T10:06:48;30.90;1.00
1476;DHT22;730;48.870;12.542;2023-07-13T10:09:16;30.90;1.00
1476;DHT22;730;48.870;12.542;2023-07-13T10:11:43;31.00;1.00
1476;DHT22;730;48.870;12.542;2023-07-13T10:14:21;31.20;1.00
1476;DHT22;730;48.870;12.542;2023-07-13T10:17:00;31.30;1.00
1476;DHT22;730;48.870;12.542;2023-07-13T10:19:39;31.40;1.00
1476;DHT22;730;48.870;12.542;2023-07-13T10:22:26;31.30;1.00
1476;DHT22;730;48.870;12.542;2023-07-13T10:24:52;31.30;1.00
1476;DHT22;730;48.870;12.542;2023-07-13T10:27:35;31.50;1.00
1476;DHT22;730;48.870;12.542;2023-07-13T10:30:21;31.50;1.00
1476;DHT22;730;48.870;12.542;2023-07-13T10:32:49;31.30;1.00
1476;DHT22;730;48.870;12.542;2023-07-13T10:35:17;31.20;1.00
1476;DHT22;730;48.870;12.542;2023-07-13T10:38:00;31.10;1.00
1476;DHT22;730;48.870;12.542;2023-07-13T10:40:35;30.70;1.00
1476;DHT22;730;48.870;12.542;2023-07-13T10:43:18;30.70;1.00
1476;DHT22;730;48.870;12.542;2023-07-13T10:45:46;30.80;1.00
1476;DHT22;730;48.870;12.542;2023-07-13T10:48:16;31.00;1.00
1476;DHT22;730;48.870;12.542;2023-07-13T10:50:45;31.10;1.00
1476;DHT22;730;48.870;12.542;2023-07-13T10:53:19;31.20;1.00
1476;DHT22;730;48.870;12.542;2023-07-13T10:58:38;31.60;1.00
1476;DHT22;730;48.870;12.542;2023-07-13T11:01:18;31.60;1.00
1476;DHT22;730;48.870;12.542;2023-07-13T11:04:04;31.50;1.00
1476;DHT22;730;48.870;12.542;2023-07-13T11:12:07;31.70;1.00
1476;DHT22;730;48.870;12.542;2023-07-13T11:14:44;31.80;1.00
1476;DHT22;730;48.870;12.542;2023-07-13T11:22:48;31.60;1.00
1476;DHT22;730;48.870;12.542;2023-07-13T11:25:30;31.70;1.00
1476;DHT22;730;48.870;12.542;2023-07-13T11:28:17;31.80;1.00
1476;DHT22;730;48.870;12.542;2023-07-13T11:30:47;31.70;1.00
1476;DHT22;730;48.870;12.542;2023-07-13T11:38:30;31.40;1.00
1476;DHT22;730;48.870;12.542;2023-07-13T11:41:00;31.20;1.00
1476;DHT22;730;48.870;12.542;2023-07-13T11:43:29;31.20;1.00
1476;DHT22;730;48.870;12.542;2023-07-13T11:45:55;31.20;1.00
1476;DHT22;730;48.870;12.542;2023-07-13T11:48:23;31.20;1.00
1476;DHT22;730;48.870;12.542;2023-07-13T11:51:00;31.30;1.00
1476;DHT22;730;48.870;12.542;2023-07-13T11:53:39;31.30;1.00
1476;DHT22;730;48.870;12.542;2023-07-13T11:56:07;31.20;1.00
1476;DHT22;730;48.870;12.542;2023-07-13T11:58:33;31.20;1.00
1476;DHT22;730;48.870;12.542;2023-07-13T12:01:02;31.10;1.00
1476;DHT22;730;48.870;12.542;2023-07-13T12:03:32;31.00;1.00
1476;DHT22;730;48.870;12.542;2023-07-13T12:06:02;31.00;1.00
1476;DHT22;730;48.870;12.542;2023-07-13T12:08:29;31.10;1.00
1476;DHT22;730;48.870;12.542;2023-07-13T12:11:01;31.10;1.00
1476;DHT22;730;48.870;12.542;2023-07-13T12:13:36;31.10;1.00
1476;DHT22;730;48.870;12.542;2023-07-13T12:16:12;31.30;1.00
1476;DHT22;730;48.870;12.542;2023-07-13T12:18:39;31.50;1.00
1476;DHT22;730;48.870;12.542;2023-07-13T12:21:13;31.60;1.00
1476;DHT22;730;48.870;12.542;2023-07-13T12:23:43;31.60;1.00
1476;DHT22;730;48.870;12.542;2023-07-13T12:26:12;31.70;1.00
1476;DHT22;730;48.870;12.542;2023-07-13T12:28:53;31.70;1.00
1476;DHT22;730;48.870;12.542;2023-07-13T12:31:41;31.70;1.00
1476;DHT22;730;48.870;12.542;2023-07-13T12:36:36;31.70;1.00
1476;DHT22;730;48.870;12.542;2023-07-13T12:44:42;31.70;1.00
1476;DHT22;730;48.870;12.542;2023-07-13T12:47:13;31.60;1.00
1476;DHT22;730;48.870;12.542;2023-07-13T12:49:54;31.60;1.00
1476;DHT22;730;48.870;12.542;2023-07-13T12:52:31;31.70;1.00
1476;DHT22;730;48.870;12.542;2023-07-13T12:57:30;32.10;1.00
1476;DHT22;730;48.870;12.542;2023-07-13T12:59:57;32.20;1.00
1476;DHT22;730;48.870;12.542;2023-07-13T13:02:29;32.30;1.00
1476;DHT22;730;48.870;12.542;2023-07-13T13:04:57;32.50;1.00
1476;DHT22;730;48.870;12.542;2023-07-13T13:07:25;32.50;1.00
1476;DHT22;730;48.870;12.542;2023-07-13T13:09:51;32.60;1.00
1476;DHT22;730;48.870;12.542;2023-07-13T13:12:19;32.70;1.00
1476;DHT22;730;48.870;12.542;2023-07-13T13:14:45;32.80;1.00
1476;DHT22;730;48.870;12.542;2023-07-13T13:17:23;32.90;1.00
1476;DHT22;730;48.870;12.542;2023-07-13T13:19:51;33.10;1.00
1476;DHT22;730;48.870;12.542;2023-07-13T13:22:20;33.30;1.00
1476;DHT22;730;48.870;12.542;2023-07-13T13:24:46;33.60;1.00
1476;DHT22;730;48.870;12.542;2023-07-13T13:27:18;33.90;1.00
1476;DHT22;730;48.870;12.542;2023-07-13T13:29:46;34.10;1.00
1476;DHT22;730;48.870;12.542;2023-07-13T13:32:13;34.30;1.00
1476;DHT22;730;48.870;12.542;2023-07-13T13:34:40;34.60;1.00
1476;DHT22;730;48.870;12.542;2023-07-13T13:37:21;34.80;1.00
1476;DHT22;730;48.870;12.542;2023-07-13T13:39:48;34.90;1.00
1476;DHT22;730;48.870;12.542;2023-07-13T13:42:15;35.00;1.00
1476;DHT22;730;48.870;12.542;2023-07-13T13:44:41;35.10;1.00
1476;DHT22;730;48.870;12.542;2023-07-13T13:47:18;35.40;1.00
1476;DHT22;730;48.870;12.542;2023-07-13T13:49:47;35.70;1.00
1476;DHT22;730;48.870;12.542;2023-07-13T13:52:13;35.80;1.00
1476;DHT22;730;48.870;12.542;2023-07-13T13:54:39;35.90;1.00
1476;DHT22;730;48.870;12.542;2023-07-13T13:57:05;36.00;1.00
1476;DHT22;730;48.870;12.542;2023-07-13T13:59:35;36.30;1.00
1476;DHT22;730;48.870;12.542;2023-07-13T14:02:25;36.40;1.00
1476;DHT22;730;48.870;12.542;2023-07-13T14:04:58;36.50;1.00
1476;DHT22;730;48.870;12.542;2023-07-13T14:07:25;36.20;1.00
1476;DHT22;730;48.870;12.542;2023-07-13T14:09:57;35.70;1.00
1476;DHT22;730;48.870;12.542;2023-07-13T14:12:23;35.60;1.00
1476;DHT22;730;48.870;12.542;2023-07-13T14:14:55;35.50;1.00
1476;DHT22;730;48.870;12.542;2023-07-13T14:17:25;35.50;1.00
1476;DHT22;730;48.870;12.542;2023-07-13T14:19:53;35.50;1.00
1476;DHT22;730;48.870;12.542;2023-07-13T14:22:56;35.00;1.00
1476;DHT22;730;48.870;12.542;2023-07-13T14:25:22;34.70;1.00
1476;DHT22;730;48.870;12.542;2023-07-13T14:27:51;34.20;1.00
1476;DHT22;730;48.870;12.542;2023-07-13T14:30:21;33.60;1.00
1476;DHT22;730;48.870;12.542;2023-07-13T14:32:51;33.30;1.00
1476;DHT22;730;48.870;12.542;2023-07-13T14:35:18;33.20;1.00
1476;DHT22;730;48.870;12.542;2023-07-13T14:37:47;33.40;1.00
1476;DHT22;730;48.870;12.542;2023-07-13T14:40:14;33.80;1.00
1476;DHT22;730;48.870;12.542;2023-07-13T14:42:40;34.10;1.00
1476;DHT22;730;48.870;12.542;2023-07-13T14:45:13;34.20;1.00
1476;DHT22;730;48.870;12.542;2023-07-13T14:47:46;34.10;1.00
1476;DHT22;730;48.870;12.542;2023-07-13T14:50:18;33.90;1.00
1476;DHT22;730;48.870;12.542;2023-07-13T14:52:44;33.60;1.00
1476;DHT22;730;48.870;12.542;2023-07-13T14:55:12;33.50;1.00
1476;DHT22;730;48.870;12.542;2023-07-13T14:57:39;33.30;1.00
1476;DHT22;730;48.870;12.542;2023-07-13T15:02:45;33.10;1.00
1476;DHT22;730;48.870;12.542;2023-07-13T15:05:21;32.90;1.00
1476;DHT22;730;48.870;12.542;2023-07-13T15:07:49;32.50;1.00
1476;DHT22;730;48.870;12.542;2023-07-13T15:10:20;32.40;1.00
1476;DHT22;730;48.870;12.542;2023-07-13T15:12:46;32.20;1.00
1476;DHT22;730;48.870;12.542;2023-07-13T15:15:13;32.20;1.00
1476;DHT22;730;48.870;12.542;2023-07-13T15:17:41;32.10;1.00
1476;DHT22;730;48.870;12.542;2023-07-13T15:20:41;32.10;1.00
1476;DHT22;730;48.870;12.542;2023-07-13T15:23:09;32.00;1.00
1476;DHT22;730;48.870;12.542;2023-07-13T15:25:35;31.90;1.00
1476;DHT22;730;48.870;12.542;2023-07-13T15:28:02;31.90;1.00
1476;DHT22;730;48.870;12.542;2023-07-13T15:30:55;31.80;1.00
1476;DHT22;730;48.870;12.542;2023-07-13T15:33:24;31.80;1.00
1476;DHT22;730;48.870;12.542;2023-07-13T15:35:51;31.70;1.00
1476;DHT22;730;48.870;12.542;2023-07-13T15:38:25;31.60;1.00
1476;DHT22;730;48.870;12.542;2023-07-13T15:40:52;31.60;1.00
1476;DHT22;730;48.870;12.542;2023-07-13T15:43:18;31.60;1.00
1476;DHT22;730;48.870;12.542;2023-07-13T15:45:45;31.50;1.00
1476;DHT22;730;48.870;12.542;2023-07-13T15:48:21;31.30;1.00
1476;DHT22;730;48.870;12.542;2023-07-13T15:50:51;31.10;1.00
1476;DHT22;730;48.870;12.542;2023-07-13T15:53:23;30.90;1.00
1476;DHT22;730;48.870;12.542;2023-07-13T15:55:51;30.70;1.00
1476;DHT22;730;48.870;12.542;2023-07-13T15:58:18;30.60;1.00
1476;DHT22;730;48.870;12.542;2023-07-13T16:00:44;30.40;1.00
1476;DHT22;730;48.870;12.542;2023-07-13T16:03:11;30.30;1.00
1476;DHT22;730;48.870;12.542;2023-07-13T16:05:38;30.20;1.00
1476;DHT22;730;48.870;12.542;2023-07-13T16:08:05;30.20;1.00
1476;DHT22;730;48.870;12.542;2023-07-13T16:10:33;30.10;1.00
1476;DHT22;730;48.870;12.542;2023-07-13T16:13:01;29.90;1.00
1476;DHT22;730;48.870;12.542;2023-07-13T16:15:27;29.90;1.00
1476;DHT22;730;48.870;12.542;2023-07-13T16:17:54;29.80;1.00
1476;DHT22;730;48.870;12.542;2023-07-13T16:20:20;29.80;1.00
1476;DHT22;730;48.870;12.542;2023-07-13T16:22:53;29.70;1.00
1476;DHT22;730;48.870;12.542;2023-07-13T16:25:22;29.50;1.00
1476;DHT22;730;48.870;12.542;2023-07-13T16:27:50;29.40;1.00
1476;DHT22;730;48.870;12.542;2023-07-13T16:30:20;29.30;1.00
1476;DHT22;730;48.870;12.542;2023-07-13T16:32:53;29.30;1.00
1476;DHT22;730;48.870;12.542;2023-07-13T16:35:23;29.30;1.00
1476;DHT22;730;48.870;12.542;2023-07-13T16:37:50;29.20;1.00
1476;DHT22;730;48.870;12.542;2023-07-13T16:40:20;29.10;1.00
1476;DHT22;730;48.870;12.542;2023-07-13T16:42:49;28.90;1.00
1476;DHT22;730;48.870;12.542;2023-07-13T16:45:16;28.80;1.00
1476;DHT22;730;48.870;12.542;2023-07-13T16:47:42;28.80;1.00
1476;DHT22;730;48.870;12.542;2023-07-13T16:50:21;28.80;1.00
1476;DHT22;730;48.870;12.542;2023-07-13T16:52:48;28.70;1.00
1476;DHT22;730;48.870;12.542;2023-07-13T16:55:16;28.60;1.00
1476;DHT22;730;48.870;12.542;2023-07-13T16:57:44;28.60;1.00
1476;DHT22;730;48.870;12.542;2023-07-13T17:00:24;28.50;1.00
1476;DHT22;730;48.870;12.542;2023-07-13T17:02:56;28.40;1.00
1476;DHT22;730;48.870;12.542;2023-07-13T17:07:59;28.10;1.00
1476;DHT22;730;48.870;12.542;2023-07-13T17:10:26;28.00;1.00
1476;DHT22;730;48.870;12.542;2023-07-13T17:12:54;28.00;1.00
1476;DHT22;730;48.870;12.542;2023-07-13T17:18:42;27.90;1.00
1476;DHT22;730;48.870;12.542;2023-07-13T17:21:13;27.90;1.00
1476;DHT22;730;48.870;12.542;2023-07-13T17:23:39;27.90;1.00